This is the latest recevied weather packets stored in our database for station/object EA4BHK-10. If no packets are shown the sender has not sent any weather packets the latest 10 day(s).
| Time | Temp. | Humidity | Pressure | Rain* | Wind** | Luminosity | Snow |
|---|---|---|---|---|---|---|---|
| 1777893661 | 16.11° C | 51% | 1013.8 hPa | - | - | - | - |
| 1777892757 | 16.11° C | 53% | 1014.1 hPa | - | - | - | - |
| 1777892042 | 16.11° C | 54% | 1014.1 hPa | - | - | - | - |
| 1777891956 | 16.11° C | 54% | 1014.1 hPa | - | - | - | - |
| 1777891864 | 16.11° C | 54% | 1014.1 hPa | - | - | - | - |
| 1777890957 | 15° C | 58% | 1014.7 hPa | - | - | - | - |
| 1777890057 | 15.56° C | 56% | 1014.6 hPa | - | - | - | - |
| 1777889164 | 17.22° C | 56% | 1014 hPa | - | - | - | - |
| 1777888257 | 17.22° C | 60% | 1014 hPa | - | - | - | - |
| 1777887357 | 14.44° C | 65% | 1015.2 hPa | - | - | - | - |
| 1777886464 | 16.11° C | 63% | 1014.4 hPa | - | - | - | - |
| 1777885794 | 15° C | 64% | 1014.8 hPa | - | - | - | - |
| 1777884876 | 15° C | 71% | 1014.8 hPa | - | - | - | - |
| 1777884664 | 15° C | 71% | 1014.8 hPa | - | - | - | - |
| 1777883764 | 13.33° C | 77% | 1015.6 hPa | - | - | - | - |
| 1777882864 | 13.89° C | 76% | 1015.5 hPa | - | - | - | - |
| 1777881964 | 13.89° C | 78% | 1015.5 hPa | - | - | - | - |
| 1777881064 | 13.33° C | 83% | 1015.6 hPa | - | - | - | - |
| 1777880601 | 12.78° C | 89% | 1015.9 hPa | - | - | - | - |
| 1777880377 | 12.78° C | 89% | 1015.9 hPa | - | - | - | - |
| 1777880164 | 12.78° C | 89% | 1015.9 hPa | - | - | - | - |
| 1777879257 | 11.67° C | 91% | 1016.2 hPa | - | - | - | - |
| 1777878357 | 11.67° C | 93% | 1016.2 hPa | - | - | - | - |
| 1777877456 | 11.11° C | 94% | 1016.2 hPa | - | - | - | - |
| 1777876557 | 11.11° C | 95% | 1016.2 hPa | - | - | - | - |
* Rain since midnight (hover to see other rain measurements)
** Current wind speed in m/s (hover to see current wind gust speed)